sensor_id;sensor_type;location;lat;lon;timestamp;temperature;humidity
1958;DHT22;979;51.076;13.748;2023-07-08T00:00:22;21.00;59.10
1958;DHT22;979;51.076;13.748;2023-07-08T00:03:02;20.80;58.80
1958;DHT22;979;51.076;13.748;2023-07-08T00:05:36;20.90;59.20
1958;DHT22;979;51.076;13.748;2023-07-08T00:08:28;20.90;59.70
1958;DHT22;979;51.076;13.748;2023-07-08T00:11:00;20.80;59.40
1958;DHT22;979;51.076;13.748;2023-07-08T00:13:43;20.70;59.40
1958;DHT22;979;51.076;13.748;2023-07-08T00:16:35;20.70;59.90
1958;DHT22;979;51.076;13.748;2023-07-08T00:19:12;20.60;60.40
1958;DHT22;979;51.076;13.748;2023-07-08T00:21:49;20.60;60.30
1958;DHT22;979;51.076;13.748;2023-07-08T00:24:22;20.80;60.30
1958;DHT22;979;51.076;13.748;2023-07-08T00:26:53;20.40;60.30
1958;DHT22;979;51.076;13.748;2023-07-08T00:29:28;20.50;60.40
1958;DHT22;979;51.076;13.748;2023-07-08T00:31:57;20.40;60.70
1958;DHT22;979;51.076;13.748;2023-07-08T00:34:29;20.40;60.80
1958;DHT22;979;51.076;13.748;2023-07-08T00:40:32;20.40;61.40
1958;DHT22;979;51.076;13.748;2023-07-08T00:43:08;20.30;61.30
1958;DHT22;979;51.076;13.748;2023-07-08T00:45:40;20.20;61.10
1958;DHT22;979;51.076;13.748;2023-07-08T00:48:34;20.20;61.30
1958;DHT22;979;51.076;13.748;2023-07-08T00:51:12;20.10;61.80
1958;DHT22;979;51.076;13.748;2023-07-08T00:53:53;20.20;61.70
1958;DHT22;979;51.076;13.748;2023-07-08T00:56:48;20.20;62.10
1958;DHT22;979;51.076;13.748;2023-07-08T00:59:30;19.90;61.70
1958;DHT22;979;51.076;13.748;2023-07-08T01:02:13;20.10;62.30
1958;DHT22;979;51.076;13.748;2023-07-08T01:05:02;19.90;62.20
1958;DHT22;979;51.076;13.748;2023-07-08T01:07:48;20.00;62.50
1958;DHT22;979;51.076;13.748;2023-07-08T01:10:39;19.80;62.10
1958;DHT22;979;51.076;13.748;2023-07-08T01:13:20;19.90;62.70
1958;DHT22;979;51.076;13.748;2023-07-08T01:16:02;19.90;63.00
1958;DHT22;979;51.076;13.748;2023-07-08T01:18:46;19.50;62.30
1958;DHT22;979;51.076;13.748;2023-07-08T01:21:34;19.80;63.10
1958;DHT22;979;51.076;13.748;2023-07-08T01:24:22;19.80;63.10
1958;DHT22;979;51.076;13.748;2023-07-08T01:27:14;19.70;63.60
1958;DHT22;979;51.076;13.748;2023-07-08T01:30:02;19.60;63.50
1958;DHT22;979;51.076;13.748;2023-07-08T01:32:43;19.60;63.40
1958;DHT22;979;51.076;13.748;2023-07-08T01:35:20;19.60;63.50
1958;DHT22;979;51.076;13.748;2023-07-08T01:37:53;19.50;63.70
1958;DHT22;979;51.076;13.748;2023-07-08T01:40:28;19.40;63.70
1958;DHT22;979;51.076;13.748;2023-07-08T01:42:59;19.40;63.90
1958;DHT22;979;51.076;13.748;2023-07-08T01:45:32;19.40;63.90
1958;DHT22;979;51.076;13.748;2023-07-08T01:48:04;19.40;64.10
1958;DHT22;979;51.076;13.748;2023-07-08T01:50:36;19.30;64.20
1958;DHT22;979;51.076;13.748;2023-07-08T01:53:08;19.30;64.30
1958;DHT22;979;51.076;13.748;2023-07-08T01:55:42;19.20;64.20
1958;DHT22;979;51.076;13.748;2023-07-08T01:58:16;19.20;64.50
1958;DHT22;979;51.076;13.748;2023-07-08T02:00:55;19.10;64.70
1958;DHT22;979;51.076;13.748;2023-07-08T02:03:40;19.10;65.10
1958;DHT22;979;51.076;13.748;2023-07-08T02:06:38;19.20;64.60
1958;DHT22;979;51.076;13.748;2023-07-08T02:09:27;19.10;64.70
1958;DHT22;979;51.076;13.748;2023-07-08T02:12:11;19.00;65.00
1958;DHT22;979;51.076;13.748;2023-07-08T02:14:53;19.00;65.20
1958;DHT22;979;51.076;13.748;2023-07-08T02:17:21;18.90;64.90
1958;DHT22;979;51.076;13.748;2023-07-08T02:19:53;18.90;65.00
1958;DHT22;979;51.076;13.748;2023-07-08T02:22:35;18.80;65.10
1958;DHT22;979;51.076;13.748;2023-07-08T02:25:20;18.90;65.40
1958;DHT22;979;51.076;13.748;2023-07-08T02:28:12;18.80;65.50
1958;DHT22;979;51.076;13.748;2023-07-08T02:31:11;18.90;65.50
1958;DHT22;979;51.076;13.748;2023-07-08T02:37:49;18.80;65.40
1958;DHT22;979;51.076;13.748;2023-07-08T02:40:26;18.60;65.00
1958;DHT22;979;51.076;13.748;2023-07-08T02:43:50;18.90;65.50
1958;DHT22;979;51.076;13.748;2023-07-08T02:46:25;18.60;65.90
1958;DHT22;979;51.076;13.748;2023-07-08T02:48:59;18.60;66.00
1958;DHT22;979;51.076;13.748;2023-07-08T02:51:28;18.60;65.80
1958;DHT22;979;51.076;13.748;2023-07-08T02:53:58;18.50;65.70
1958;DHT22;979;51.076;13.748;2023-07-08T02:56:26;18.50;65.70
1958;DHT22;979;51.076;13.748;2023-07-08T02:58:56;18.50;66.00
1958;DHT22;979;51.076;13.748;2023-07-08T03:01:27;18.50;66.20
1958;DHT22;979;51.076;13.748;2023-07-08T03:03:55;18.40;66.10
1958;DHT22;979;51.076;13.748;2023-07-08T03:06:30;18.40;66.20
1958;DHT22;979;51.076;13.748;2023-07-08T03:09:14;18.30;66.30
1958;DHT22;979;51.076;13.748;2023-07-08T03:12:01;18.40;66.80
1958;DHT22;979;51.076;13.748;2023-07-08T03:14:42;18.40;66.90
1958;DHT22;979;51.076;13.748;2023-07-08T03:17:27;18.50;66.50
1958;DHT22;979;51.076;13.748;2023-07-08T03:20:04;18.40;66.70
1958;DHT22;979;51.076;13.748;2023-07-08T03:22:54;18.40;66.70
1958;DHT22;979;51.076;13.748;2023-07-08T03:25:36;18.40;66.70
1958;DHT22;979;51.076;13.748;2023-07-08T03:28:29;18.40;66.80
1958;DHT22;979;51.076;13.748;2023-07-08T03:31:10;18.50;66.50
1958;DHT22;979;51.076;13.748;2023-07-08T03:33:54;18.40;66.80
1958;DHT22;979;51.076;13.748;2023-07-08T03:36:30;18.40;66.60
1958;DHT22;979;51.076;13.748;2023-07-08T03:39:10;18.50;67.30
1958;DHT22;979;51.076;13.748;2023-07-08T03:41:52;18.50;66.90
1958;DHT22;979;51.076;13.748;2023-07-08T03:44:48;18.50;66.90
1958;DHT22;979;51.076;13.748;2023-07-08T03:47:30;18.50;67.10
1958;DHT22;979;51.076;13.748;2023-07-08T03:50:18;18.50;67.20
1958;DHT22;979;51.076;13.748;2023-07-08T03:53:05;18.50;67.00
1958;DHT22;979;51.076;13.748;2023-07-08T03:55:52;18.40;66.40
1958;DHT22;979;51.076;13.748;2023-07-08T03:58:31;18.50;66.90
1958;DHT22;979;51.076;13.748;2023-07-08T04:01:21;18.60;67.00
1958;DHT22;979;51.076;13.748;2023-07-08T04:04:12;18.50;67.00
1958;DHT22;979;51.076;13.748;2023-07-08T04:06:45;18.60;66.80
1958;DHT22;979;51.076;13.748;2023-07-08T04:09:20;18.60;67.00
1958;DHT22;979;51.076;13.748;2023-07-08T04:11:48;18.70;67.10
1958;DHT22;979;51.076;13.748;2023-07-08T04:14:18;18.70;67.00
1958;DHT22;979;51.076;13.748;2023-07-08T04:16:50;18.70;67.10
1958;DHT22;979;51.076;13.748;2023-07-08T04:19:20;18.80;67.30
1958;DHT22;979;51.076;13.748;2023-07-08T04:21:50;18.90;67.30
1958;DHT22;979;51.076;13.748;2023-07-08T04:24:19;18.90;67.10
1958;DHT22;979;51.076;13.748;2023-07-08T04:26:48;19.00;67.30
1958;DHT22;979;51.076;13.748;2023-07-08T04:29:18;19.00;67.30
1958;DHT22;979;51.076;13.748;2023-07-08T04:31:52;19.10;67.30
1958;DHT22;979;51.076;13.748;2023-07-08T04:34:35;19.20;68.10
1958;DHT22;979;51.076;13.748;2023-07-08T04:37:26;19.20;68.10
1958;DHT22;979;51.076;13.748;2023-07-08T04:40:17;19.30;67.70
1958;DHT22;979;51.076;13.748;2023-07-08T04:42:53;19.40;67.30
1958;DHT22;979;51.076;13.748;2023-07-08T04:45:21;19.40;67.40
1958;DHT22;979;51.076;13.748;2023-07-08T04:47:49;19.50;67.50
1958;DHT22;979;51.076;13.748;2023-07-08T04:50:21;19.60;67.40
1958;DHT22;979;51.076;13.748;2023-07-08T04:52:50;19.70;67.30
1958;DHT22;979;51.076;13.748;2023-07-08T04:55:19;19.80;67.30
1958;DHT22;979;51.076;13.748;2023-07-08T04:57:47;19.90;67.30
1958;DHT22;979;51.076;13.748;2023-07-08T05:00:17;20.00;67.10
1958;DHT22;979;51.076;13.748;2023-07-08T05:02:46;20.10;67.10
1958;DHT22;979;51.076;13.748;2023-07-08T05:05:15;20.20;67.10
1958;DHT22;979;51.076;13.748;2023-07-08T05:07:47;20.30;66.80
1958;DHT22;979;51.076;13.748;2023-07-08T05:10:16;20.40;66.70
1958;DHT22;979;51.076;13.748;2023-07-08T05:12:45;20.40;66.40
1958;DHT22;979;51.076;13.748;2023-07-08T05:15:15;20.60;66.90
1958;DHT22;979;51.076;13.748;2023-07-08T05:17:50;20.70;66.00
1958;DHT22;979;51.076;13.748;2023-07-08T05:20:19;20.90;65.90
1958;DHT22;979;51.076;13.748;2023-07-08T05:22:53;21.00;65.60
1958;DHT22;979;51.076;13.748;2023-07-08T05:25:21;21.10;65.50
1958;DHT22;979;51.076;13.748;2023-07-08T05:27:50;21.20;65.20
1958;DHT22;979;51.076;13.748;2023-07-08T05:30:20;21.30;65.00
1958;DHT22;979;51.076;13.748;2023-07-08T05:32:49;21.50;64.90
1958;DHT22;979;51.076;13.748;2023-07-08T05:35:17;21.60;64.80
1958;DHT22;979;51.076;13.748;2023-07-08T05:37:47;21.70;64.80
1958;DHT22;979;51.076;13.748;2023-07-08T05:40:17;21.80;64.40
1958;DHT22;979;51.076;13.748;2023-07-08T05:42:45;22.00;64.10
1958;DHT22;979;51.076;13.748;2023-07-08T05:45:14;22.10;63.80
1958;DHT22;979;51.076;13.748;2023-07-08T05:47:44;22.30;63.60
1958;DHT22;979;51.076;13.748;2023-07-08T05:50:13;22.50;63.20
1958;DHT22;979;51.076;13.748;2023-07-08T05:52:45;22.60;62.90
1958;DHT22;979;51.076;13.748;2023-07-08T05:55:39;22.80;62.50
1958;DHT22;979;51.076;13.748;2023-07-08T05:58:29;23.00;61.80
1958;DHT22;979;51.076;13.748;2023-07-08T06:01:11;23.20;61.40
1958;DHT22;979;51.076;13.748;2023-07-08T06:04:03;23.30;60.70
1958;DHT22;979;51.076;13.748;2023-07-08T06:06:53;23.50;60.00
1958;DHT22;979;51.076;13.748;2023-07-08T06:09:50;23.60;59.20
1958;DHT22;979;51.076;13.748;2023-07-08T06:13:05;23.80;59.00
1958;DHT22;979;51.076;13.748;2023-07-08T06:15:47;24.00;59.00
1958;DHT22;979;51.076;13.748;2023-07-08T06:18:37;24.10;58.50
1958;DHT22;979;51.076;13.748;2023-07-08T06:21:14;24.20;58.20
1958;DHT22;979;51.076;13.748;2023-07-08T06:23:54;24.30;58.30
1958;DHT22;979;51.076;13.748;2023-07-08T06:26:43;24.50;58.10
1958;DHT22;979;51.076;13.748;2023-07-08T06:29:29;24.60;57.50
1958;DHT22;979;51.076;13.748;2023-07-08T06:32:17;24.60;57.30
1958;DHT22;979;51.076;13.748;2023-07-08T06:35:25;24.80;57.20
1958;DHT22;979;51.076;13.748;2023-07-08T06:37:56;24.90;57.10
1958;DHT22;979;51.076;13.748;2023-07-08T06:40:37;25.00;56.70
1958;DHT22;979;51.076;13.748;2023-07-08T06:43:26;25.20;56.20
1958;DHT22;979;51.076;13.748;2023-07-08T06:46:33;25.20;56.00
1958;DHT22;979;51.076;13.748;2023-07-08T06:49:14;25.40;56.20
1958;DHT22;979;51.076;13.748;2023-07-08T06:51:56;25.50;56.20
1958;DHT22;979;51.076;13.748;2023-07-08T06:54:32;25.60;55.90
1958;DHT22;979;51.076;13.748;2023-07-08T06:57:00;25.70;55.90
1958;DHT22;979;51.076;13.748;2023-07-08T06:59:36;25.80;55.60
1958;DHT22;979;51.076;13.748;2023-07-08T07:02:19;25.90;55.70
1958;DHT22;979;51.076;13.748;2023-07-08T07:05:11;26.10;55.60
1958;DHT22;979;51.076;13.748;2023-07-08T07:08:39;26.10;55.00
1958;DHT22;979;51.076;13.748;2023-07-08T07:11:27;26.30;55.20
1958;DHT22;979;51.076;13.748;2023-07-08T07:14:07;26.20;54.60
1958;DHT22;979;51.076;13.748;2023-07-08T07:16:52;26.50;54.80
1958;DHT22;979;51.076;13.748;2023-07-08T07:19:40;26.60;54.70
1958;DHT22;979;51.076;13.748;2023-07-08T07:22:16;26.80;54.70
1958;DHT22;979;51.076;13.748;2023-07-08T07:24:56;27.00;54.20
1958;DHT22;979;51.076;13.748;2023-07-08T07:27:44;27.10;54.00
1958;DHT22;979;51.076;13.748;2023-07-08T07:30:29;27.20;53.70
1958;DHT22;979;51.076;13.748;2023-07-08T07:33:13;27.30;53.40
1958;DHT22;979;51.076;13.748;2023-07-08T07:35:53;27.40;53.00
1958;DHT22;979;51.076;13.748;2023-07-08T07:38:37;27.40;53.30
1958;DHT22;979;51.076;13.748;2023-07-08T07:41:34;27.50;52.90
1958;DHT22;979;51.076;13.748;2023-07-08T07:44:10;27.60;53.00
1958;DHT22;979;51.076;13.748;2023-07-08T07:46:56;27.80;53.20
1958;DHT22;979;51.076;13.748;2023-07-08T07:49:47;28.00;53.00
1958;DHT22;979;51.076;13.748;2023-07-08T07:53:06;27.80;52.40
1958;DHT22;979;51.076;13.748;2023-07-08T07:56:10;28.30;52.50
1958;DHT22;979;51.076;13.748;2023-07-08T07:58:55;28.40;52.50
1958;DHT22;979;51.076;13.748;2023-07-08T08:01:45;28.50;52.10
1958;DHT22;979;51.076;13.748;2023-07-08T08:04:32;28.50;51.90
1958;DHT22;979;51.076;13.748;2023-07-08T08:07:23;28.50;51.90
1958;DHT22;979;51.076;13.748;2023-07-08T08:10:23;28.80;51.90
1958;DHT22;979;51.076;13.748;2023-07-08T08:13:10;28.70;52.50
1958;DHT22;979;51.076;13.748;2023-07-08T08:15:59;28.90;51.90
1958;DHT22;979;51.076;13.748;2023-07-08T08:18:34;29.10;51.80
1958;DHT22;979;51.076;13.748;2023-07-08T08:21:35;29.10;51.90
1958;DHT22;979;51.076;13.748;2023-07-08T08:24:22;29.20;51.90
1958;DHT22;979;51.076;13.748;2023-07-08T08:27:05;29.60;52.40
1958;DHT22;979;51.076;13.748;2023-07-08T08:29:58;29.40;52.70
1958;DHT22;979;51.076;13.748;2023-07-08T08:32:48;29.40;52.80
1958;DHT22;979;51.076;13.748;2023-07-08T08:35:58;29.60;51.60
1958;DHT22;979;51.076;13.748;2023-07-08T08:38:57;29.70;52.10
1958;DHT22;979;51.076;13.748;2023-07-08T08:41:46;30.10;52.30
1958;DHT22;979;51.076;13.748;2023-07-08T08:44:55;30.10;52.20
1958;DHT22;979;51.076;13.748;2023-07-08T08:47:58;30.20;51.10
1958;DHT22;979;51.076;13.748;2023-07-08T08:51:31;30.50;50.70
1958;DHT22;979;51.076;13.748;2023-07-08T08:54:04;30.60;50.60
1958;DHT22;979;51.076;13.748;2023-07-08T08:57:08;30.80;51.10
1958;DHT22;979;51.076;13.748;2023-07-08T09:00:01;30.90;50.00
1958;DHT22;979;51.076;13.748;2023-07-08T09:02:53;31.00;50.50
1958;DHT22;979;51.076;13.748;2023-07-08T09:09:46;31.20;49.80
1958;DHT22;979;51.076;13.748;2023-07-08T09:12:33;31.40;48.60
1958;DHT22;979;51.076;13.748;2023-07-08T09:15:54;31.50;48.60
1958;DHT22;979;51.076;13.748;2023-07-08T09:26:55;32.50;47.90
1958;DHT22;979;51.076;13.748;2023-07-08T09:51:29;33.70;42.80
1958;DHT22;979;51.076;13.748;2023-07-08T09:58:08;33.80;40.70
1958;DHT22;979;51.076;13.748;2023-07-08T10:01:08;33.90;40.00
1958;DHT22;979;51.076;13.748;2023-07-08T10:04:05;33.60;40.20
1958;DHT22;979;51.076;13.748;2023-07-08T10:06:49;34.00;40.50
1958;DHT22;979;51.076;13.748;2023-07-08T10:09:36;34.20;40.30
1958;DHT22;979;51.076;13.748;2023-07-08T10:12:40;34.20;41.20
1958;DHT22;979;51.076;13.748;2023-07-08T10:22:02;34.50;40.20
1958;DHT22;979;51.076;13.748;2023-07-08T10:25:08;34.50;39.30
1958;DHT22;979;51.076;13.748;2023-07-08T10:28:11;34.70;39.70
1958;DHT22;979;51.076;13.748;2023-07-08T10:30:56;34.70;39.40
1958;DHT22;979;51.076;13.748;2023-07-08T10:33:56;35.10;39.50
1958;DHT22;979;51.076;13.748;2023-07-08T10:36:44;34.60;39.70
1958;DHT22;979;51.076;13.748;2023-07-08T10:39:47;35.20;39.00
1958;DHT22;979;51.076;13.748;2023-07-08T10:42:32;35.20;38.50
1958;DHT22;979;51.076;13.748;2023-07-08T10:45:09;35.20;38.30
1958;DHT22;979;51.076;13.748;2023-07-08T10:47:56;35.30;38.30
1958;DHT22;979;51.076;13.748;2023-07-08T10:51:05;35.40;38.00
1958;DHT22;979;51.076;13.748;2023-07-08T10:54:34;35.60;38.30
1958;DHT22;979;51.076;13.748;2023-07-08T10:57:14;35.70;37.70
1958;DHT22;979;51.076;13.748;2023-07-08T10:59:53;35.70;37.40
1958;DHT22;979;51.076;13.748;2023-07-08T11:03:11;35.60;37.40
1958;DHT22;979;51.076;13.748;2023-07-08T11:05:45;35.60;37.50
1958;DHT22;979;51.076;13.748;2023-07-08T11:08:19;35.50;37.40
1958;DHT22;979;51.076;13.748;2023-07-08T11:10:55;35.50;37.40
1958;DHT22;979;51.076;13.748;2023-07-08T11:13:51;35.40;37.60
1958;DHT22;979;51.076;13.748;2023-07-08T11:16:50;35.40;37.10
1958;DHT22;979;51.076;13.748;2023-07-08T11:19:36;35.50;37.40
1958;DHT22;979;51.076;13.748;2023-07-08T11:22:24;35.70;37.80
1958;DHT22;979;51.076;13.748;2023-07-08T11:25:04;36.00;38.00
1958;DHT22;979;51.076;13.748;2023-07-08T11:27:50;36.20;37.60
1958;DHT22;979;51.076;13.748;2023-07-08T11:30:50;36.30;37.60
1958;DHT22;979;51.076;13.748;2023-07-08T11:34:15;36.30;37.10
1958;DHT22;979;51.076;13.748;2023-07-08T11:40:55;36.40;36.50
1958;DHT22;979;51.076;13.748;2023-07-08T11:43:42;36.40;36.70
1958;DHT22;979;51.076;13.748;2023-07-08T12:04:28;39.50;35.60
1958;DHT22;979;51.076;13.748;2023-07-08T12:15:24;43.40;33.90
1958;DHT22;979;51.076;13.748;2023-07-08T12:18:19;43.80;33.50
1958;DHT22;979;51.076;13.748;2023-07-08T12:21:30;44.50;33.20
1958;DHT22;979;51.076;13.748;2023-07-08T12:24:14;45.50;33.20
1958;DHT22;979;51.076;13.748;2023-07-08T12:27:03;46.20;33.20
1958;DHT22;979;51.076;13.748;2023-07-08T12:29:43;46.60;32.20
1958;DHT22;979;51.076;13.748;2023-07-08T12:32:30;47.00;32.10
1958;DHT22;979;51.076;13.748;2023-07-08T12:39:40;48.20;31.90
1958;DHT22;979;51.076;13.748;2023-07-08T12:43:02;48.70;31.90
1958;DHT22;979;51.076;13.748;2023-07-08T12:45:42;48.80;31.10
1958;DHT22;979;51.076;13.748;2023-07-08T12:48:33;49.20;31.20
1958;DHT22;979;51.076;13.748;2023-07-08T12:51:21;49.20;31.30
1958;DHT22;979;51.076;13.748;2023-07-08T12:53:51;49.20;30.70
1958;DHT22;979;51.076;13.748;2023-07-08T12:56:24;49.10;30.90
1958;DHT22;979;51.076;13.748;2023-07-08T12:58:55;49.30;30.80
1958;DHT22;979;51.076;13.748;2023-07-08T13:01:29;49.60;30.60
1958;DHT22;979;51.076;13.748;2023-07-08T13:04:01;49.90;30.50
1958;DHT22;979;51.076;13.748;2023-07-08T13:06:32;50.00;30.10
1958;DHT22;979;51.076;13.748;2023-07-08T13:09:08;49.50;29.90
1958;DHT22;979;51.076;13.748;2023-07-08T13:11:41;49.20;30.00
1958;DHT22;979;51.076;13.748;2023-07-08T13:14:12;49.40;30.40
1958;DHT22;979;51.076;13.748;2023-07-08T13:16:42;49.80;30.40
1958;DHT22;979;51.076;13.748;2023-07-08T13:19:11;50.10;30.50
1958;DHT22;979;51.076;13.748;2023-07-08T13:21:40;50.30;30.20
1958;DHT22;979;51.076;13.748;2023-07-08T13:24:10;50.40;30.90
1958;DHT22;979;51.076;13.748;2023-07-08T13:26:45;50.40;30.00
1958;DHT22;979;51.076;13.748;2023-07-08T13:29:16;50.30;29.90
1958;DHT22;979;51.076;13.748;2023-07-08T13:31:49;50.30;29.80
1958;DHT22;979;51.076;13.748;2023-07-08T13:34:24;50.40;29.90
1958;DHT22;979;51.076;13.748;2023-07-08T13:36:58;50.60;29.80
1958;DHT22;979;51.076;13.748;2023-07-08T13:39:35;50.70;30.00
1958;DHT22;979;51.076;13.748;2023-07-08T13:42:36;51.00;30.20
1958;DHT22;979;51.076;13.748;2023-07-08T13:45:31;51.00;29.80
1958;DHT22;979;51.076;13.748;2023-07-08T13:48:26;50.80;30.10
1958;DHT22;979;51.076;13.748;2023-07-08T13:51:07;50.70;30.00
1958;DHT22;979;51.076;13.748;2023-07-08T13:53:52;50.50;29.80
1958;DHT22;979;51.076;13.748;2023-07-08T13:56:34;50.30;29.90
1958;DHT22;979;51.076;13.748;2023-07-08T13:59:23;50.20;29.70
1958;DHT22;979;51.076;13.748;2023-07-08T14:02:16;50.40;29.80
1958;DHT22;979;51.076;13.748;2023-07-08T14:04:57;50.30;29.40
1958;DHT22;979;51.076;13.748;2023-07-08T14:07:43;49.90;29.80
1958;DHT22;979;51.076;13.748;2023-07-08T14:10:21;49.70;30.00
1958;DHT22;979;51.076;13.748;2023-07-08T14:13:05;49.80;29.90
1958;DHT22;979;51.076;13.748;2023-07-08T14:15:46;49.80;29.90
1958;DHT22;979;51.076;13.748;2023-07-08T14:18:30;50.10;30.00
1958;DHT22;979;51.076;13.748;2023-07-08T14:21:14;50.40;29.90
1958;DHT22;979;51.076;13.748;2023-07-08T14:24:15;50.60;30.00
1958;DHT22;979;51.076;13.748;2023-07-08T14:27:13;50.50;29.80
1958;DHT22;979;51.076;13.748;2023-07-08T14:29:47;50.10;29.40
1958;DHT22;979;51.076;13.748;2023-07-08T14:32:37;50.10;29.40
1958;DHT22;979;51.076;13.748;2023-07-08T14:35:16;49.90;29.80
1958;DHT22;979;51.076;13.748;2023-07-08T14:37:53;50.10;29.70
1958;DHT22;979;51.076;13.748;2023-07-08T14:40:36;50.40;29.80
1958;DHT22;979;51.076;13.748;2023-07-08T14:43:18;50.80;29.80
1958;DHT22;979;51.076;13.748;2023-07-08T14:46:09;51.30;29.90
1958;DHT22;979;51.076;13.748;2023-07-08T14:49:13;51.30;29.60
1958;DHT22;979;51.076;13.748;2023-07-08T14:52:18;51.30;29.40
1958;DHT22;979;51.076;13.748;2023-07-08T14:55:04;51.50;29.80
1958;DHT22;979;51.076;13.748;2023-07-08T14:57:41;51.60;29.20
1958;DHT22;979;51.076;13.748;2023-07-08T15:00:44;51.70;29.20
1958;DHT22;979;51.076;13.748;2023-07-08T15:03:12;51.80;29.20
1958;DHT22;979;51.076;13.748;2023-07-08T15:05:45;52.10;29.50
1958;DHT22;979;51.076;13.748;2023-07-08T15:08:14;52.00;29.70
1958;DHT22;979;51.076;13.748;2023-07-08T15:10:51;51.80;29.20
1958;DHT22;979;51.076;13.748;2023-07-08T15:13:26;51.70;29.10
1958;DHT22;979;51.076;13.748;2023-07-08T15:15:56;51.30;29.00
1958;DHT22;979;51.076;13.748;2023-07-08T15:18:47;51.00;29.30
1958;DHT22;979;51.076;13.748;2023-07-08T15:24:37;50.20;28.80
1958;DHT22;979;51.076;13.748;2023-07-08T15:27:22;49.70;29.80
1958;DHT22;979;51.076;13.748;2023-07-08T15:30:00;49.10;30.00
1958;DHT22;979;51.076;13.748;2023-07-08T15:32:49;48.90;29.90
1958;DHT22;979;51.076;13.748;2023-07-08T15:35:27;48.60;29.80
1958;DHT22;979;51.076;13.748;2023-07-08T15:39:10;48.40;29.50
1958;DHT22;979;51.076;13.748;2023-07-08T15:41:52;48.10;29.60
1958;DHT22;979;51.076;13.748;2023-07-08T15:44:27;47.60;29.70
1958;DHT22;979;51.076;13.748;2023-07-08T15:46:57;47.00;30.10
1958;DHT22;979;51.076;13.748;2023-07-08T15:49:32;46.60;29.90
1958;DHT22;979;51.076;13.748;2023-07-08T15:52:09;46.50;30.20
1958;DHT22;979;51.076;13.748;2023-07-08T15:54:49;46.50;30.20
1958;DHT22;979;51.076;13.748;2023-07-08T15:57:27;46.60;30.60
1958;DHT22;979;51.076;13.748;2023-07-08T16:00:03;46.60;30.50
1958;DHT22;979;51.076;13.748;2023-07-08T16:02:34;46.50;30.40
1958;DHT22;979;51.076;13.748;2023-07-08T16:05:08;46.60;31.30
1958;DHT22;979;51.076;13.748;2023-07-08T16:07:43;46.20;30.10
1958;DHT22;979;51.076;13.748;2023-07-08T16:10:13;45.60;30.10
1958;DHT22;979;51.076;13.748;2023-07-08T16:12:49;44.90;30.00
1958;DHT22;979;51.076;13.748;2023-07-08T16:15:20;44.20;30.40
1958;DHT22;979;51.076;13.748;2023-07-08T16:17:50;43.60;30.30
1958;DHT22;979;51.076;13.748;2023-07-08T16:20:22;43.00;31.00
1958;DHT22;979;51.076;13.748;2023-07-08T16:23:33;42.20;31.60
1958;DHT22;979;51.076;13.748;2023-07-08T16:26:09;41.60;31.00
1958;DHT22;979;51.076;13.748;2023-07-08T16:28:44;41.20;31.40
1958;DHT22;979;51.076;13.748;2023-07-08T16:31:15;40.90;31.90
1958;DHT22;979;51.076;13.748;2023-07-08T16:33:45;40.50;32.00
1958;DHT22;979;51.076;13.748;2023-07-08T16:36:16;40.20;32.40
1958;DHT22;979;51.076;13.748;2023-07-08T16:39:01;40.20;32.70
1958;DHT22;979;51.076;13.748;2023-07-08T16:41:38;40.40;32.60
1958;DHT22;979;51.076;13.748;2023-07-08T16:44:22;40.90;33.50
1958;DHT22;979;51.076;13.748;2023-07-08T16:47:00;41.40;32.50
1958;DHT22;979;51.076;13.748;2023-07-08T16:49:35;41.90;32.40
1958;DHT22;979;51.076;13.748;2023-07-08T16:52:23;42.50;32.80
1958;DHT22;979;51.076;13.748;2023-07-08T16:54:55;42.90;32.20
1958;DHT22;979;51.076;13.748;2023-07-08T16:57:26;43.30;31.90
1958;DHT22;979;51.076;13.748;2023-07-08T17:03:35;43.70;31.30
1958;DHT22;979;51.076;13.748;2023-07-08T17:06:24;43.60;31.50
1958;DHT22;979;51.076;13.748;2023-07-08T17:09:23;43.70;30.90
1958;DHT22;979;51.076;13.748;2023-07-08T17:12:08;43.40;30.90
1958;DHT22;979;51.076;13.748;2023-07-08T17:14:57;43.20;30.80
1958;DHT22;979;51.076;13.748;2023-07-08T17:17:43;43.10;31.20
1958;DHT22;979;51.076;13.748;2023-07-08T17:20:29;43.00;31.60
1958;DHT22;979;51.076;13.748;2023-07-08T17:23:11;42.70;31.20
1958;DHT22;979;51.076;13.748;2023-07-08T17:26:01;43.00;31.80
1958;DHT22;979;51.076;13.748;2023-07-08T17:28:44;42.90;31.90
1958;DHT22;979;51.076;13.748;2023-07-08T17:31:26;42.80;32.30
1958;DHT22;979;51.076;13.748;2023-07-08T17:34:21;42.70;32.10
1958;DHT22;979;51.076;13.748;2023-07-08T17:36:55;42.60;31.90
1958;DHT22;979;51.076;13.748;2023-07-08T17:39:50;42.40;31.70
1958;DHT22;979;51.076;13.748;2023-07-08T17:42:42;41.90;31.70
1958;DHT22;979;51.076;13.748;2023-07-08T17:45:27;42.00;32.10
1958;DHT22;979;51.076;13.748;2023-07-08T17:48:12;41.70;31.90
1958;DHT22;979;51.076;13.748;2023-07-08T17:50:54;41.60;32.40
1958;DHT22;979;51.076;13.748;2023-07-08T17:53:40;41.20;32.40
1958;DHT22;979;51.076;13.748;2023-07-08T17:56:40;41.20;32.10
1958;DHT22;979;51.076;13.748;2023-07-08T17:59:19;40.70;32.20
1958;DHT22;979;51.076;13.748;2023-07-08T18:02:01;40.20;32.70
1958;DHT22;979;51.076;13.748;2023-07-08T18:04:42;39.80;32.70
1958;DHT22;979;51.076;13.748;2023-07-08T18:07:21;39.30;33.50
1958;DHT22;979;51.076;13.748;2023-07-08T18:10:09;38.80;33.30
1958;DHT22;979;51.076;13.748;2023-07-08T18:13:07;38.30;33.80
1958;DHT22;979;51.076;13.748;2023-07-08T18:15:59;37.90;33.90
1958;DHT22;979;51.076;13.748;2023-07-08T18:18:55;37.50;33.80
1958;DHT22;979;51.076;13.748;2023-07-08T18:21:34;37.10;34.40
1958;DHT22;979;51.076;13.748;2023-07-08T18:24:41;36.70;35.20
1958;DHT22;979;51.076;13.748;2023-07-08T18:28:04;36.30;35.20
1958;DHT22;979;51.076;13.748;2023-07-08T18:31:08;35.90;35.30
1958;DHT22;979;51.076;13.748;2023-07-08T18:34:20;35.60;36.00
1958;DHT22;979;51.076;13.748;2023-07-08T18:40:42;35.10;37.50
1958;DHT22;979;51.076;13.748;2023-07-08T18:44:23;34.50;37.70
1958;DHT22;979;51.076;13.748;2023-07-08T18:47:09;34.40;38.40
1958;DHT22;979;51.076;13.748;2023-07-08T18:52:50;33.90;39.40
1958;DHT22;979;51.076;13.748;2023-07-08T18:55:54;33.60;40.10
1958;DHT22;979;51.076;13.748;2023-07-08T18:58:56;33.40;40.00
1958;DHT22;979;51.076;13.748;2023-07-08T19:01:41;33.20;40.50
1958;DHT22;979;51.076;13.748;2023-07-08T19:04:24;32.90;40.30
1958;DHT22;979;51.076;13.748;2023-07-08T19:07:11;32.90;40.60
1958;DHT22;979;51.076;13.748;2023-07-08T19:09:52;32.50;40.70
1958;DHT22;979;51.076;13.748;2023-07-08T19:12:58;32.30;41.20
1958;DHT22;979;51.076;13.748;2023-07-08T19:15:38;32.10;41.90
1958;DHT22;979;51.076;13.748;2023-07-08T19:18:24;31.90;41.70
1958;DHT22;979;51.076;13.748;2023-07-08T19:21:03;31.50;42.50
1958;DHT22;979;51.076;13.748;2023-07-08T19:23:39;31.60;42.50
1958;DHT22;979;51.076;13.748;2023-07-08T19:26:18;31.40;42.90
1958;DHT22;979;51.076;13.748;2023-07-08T19:29:12;31.30;43.00